Galaxy Leader — C6S02 — position and weather

sailwx.info

Track history (hours):
 
Tides and Currents Weather Stations Pressure Air Temp Water Temp Dewpoint Dewpoint Depression Visibility Wind Speed Wind Dir Waves Ship Positions

Galaxy Leader

Last reported at 2018-Feb-17 15:25 UTC. Time now 2018-Feb-19 05:58 UTC.
Position S 23°16' W 042°27'.

Length 189 m; draft 8.4 m.

Type: Cargo ship. MMSI: 311408000.

Date/timePositionNaut miles runAvg speedWind from/ knotsBaromVisibWave heightAir tempDewpointWater temp
2018-Feb-17 15:25S 23°16' W 042°27'716.0
2018-Feb-17 15:00S 23°18' W 042°35'816.0
2018-Feb-17 14:30S 23°21' W 042°43'715.3
2018-Feb-17 14:00S 23°23' W 042°50'814.5
2018-Feb-17 13:29S 23°26' W 042°58'714.7
2018-Feb-17 13:00S 23°28' W 043°05'714.7
2018-Feb-17 12:30S 23°30' W 043°13'714.6
2018-Feb-17 12:00S 23°33' W 043°21'714.4
2018-Feb-17 11:30S 23°36' W 043°28'714.2
2018-Feb-17 11:00S 23°39' W 043°35'714.2
2018-Feb-17 10:29S 23°41' W 043°43'815.3
2018-Feb-17 09:59S 23°42' W 043°51'13613.5
2018-Feb-16 23:54S 24°06' W 046°17'614.4
2018-Feb-16 23:30S 24°01' W 046°21'4 8.4
2018-Feb-16 23:00S 23°58' W 046°17'1 1.9
2018-Feb-16 22:28S 23°58' W 046°18'0 0.0
2018-Feb-16 21:58S 23°58' W 046°18'0 0.0
2018-Feb-16 21:28S 23°58' W 046°18'0 0.0
2018-Feb-16 20:58S 23°58' W 046°18'0 0.0
2018-Feb-16 20:22S 23°58' W 046°18'0 0.0
2018-Feb-16 19:46S 23°58' W 046°18'0 0.0
2018-Feb-16 19:28S 23°58' W 046°18'0 0.0
2018-Feb-16 18:58S 23°58' W 046°18'0 0.0
2018-Feb-16 18:28S 23°58' W 046°18'0 0.0
2018-Feb-16 17:58S 23°58' W 046°18'0 0.0
2018-Feb-16 17:28S 23°58' W 046°18'0 0.0
2018-Feb-16 16:58S 23°58' W 046°18'0 0.0
2018-Feb-16 16:25S 23°58' W 046°18'0 0.0
2018-Feb-16 15:55S 23°58' W 046°18'0 0.0
2018-Feb-16 15:28S 23°58' W 046°18'0 0.0
2018-Feb-16 14:58S 23°58' W 046°18'0 0.0
2018-Feb-16 14:28S 23°58' W 046°18'0 0.0
2018-Feb-16 13:58S 23°58' W 046°18'0 0.0
2018-Feb-16 13:28S 23°58' W 046°18'0 0.0
2018-Feb-16 12:52S 23°58' W 046°18'0 0.0
2018-Feb-16 12:28S 23°58' W 046°18'0 0.0
2018-Feb-16 11:58S 23°58' W 046°18'0 0.0
2018-Feb-16 11:28S 23°58' W 046°18'0 0.0
2018-Feb-16 10:58S 23°58' W 046°18'0 0.0
2018-Feb-16 10:16S 23°58' W 046°18'0 0.0
2018-Feb-16 09:58S 23°58' W 046°18'0 0.0
2018-Feb-16 09:30S 23°58' W 046°18'1 1.6
2018-Feb-16 09:00S 23°58' W 046°17'3 6.5
2018-Feb-16 08:29S 24°00' W 046°20'4 8.3
2018-Feb-16 08:00S 24°04' W 046°22'5 8.7
2018-Feb-16 07:24S 24°09' W 046°24'3 7.4
2018-Feb-16 06:56S 24°09' W 046°28'3 0.9
2018-Feb-16 03:24S 24°12' W 046°26'4 2.7
2018-Feb-16 01:59S 24°12' W 046°31'8 0.7
2018-Feb-15 13:54S 24°17' W 046°24'8 8.0
2018-Feb-15 12:52S 24°13' W 046°31'3 1.1
2018-Feb-15 09:50S 24°16' W 046°29'2 1.3
2018-Feb-15 07:52S 24°17' W 046°27'1 1.4
2018-Feb-15 07:21S 24°17' W 046°26'1 1.2
2018-Feb-15 06:56S 24°18' W 046°26'  
Track history (hours):
 
Tides and Currents Weather Stations Pressure Air Temp Water Temp Dewpoint Dewpoint Depression Visibility Wind Speed Wind Dir Waves Ship Positions

Galaxy Leader

Last reported at 2018-Feb-17 15:25 UTC. Time now 2018-Feb-19 05:58 UTC.
Position S 23°16' W 042°27'.

Length 189 m; draft 8.4 m.

Type: Cargo ship. MMSI: 311408000.

Date/timePositionNaut miles runAvg speedWind from/ knotsBaromVisibWave heightAir tempDewpointWater temp
2018-Feb-17 15:25S 23°16' W 042°27'716.0
2018-Feb-17 15:00S 23°18' W 042°35'816.0
2018-Feb-17 14:30S 23°21' W 042°43'715.3
2018-Feb-17 14:00S 23°23' W 042°50'814.5
2018-Feb-17 13:29S 23°26' W 042°58'714.7
2018-Feb-17 13:00S 23°28' W 043°05'714.7
2018-Feb-17 12:30S 23°30' W 043°13'714.6
2018-Feb-17 12:00S 23°33' W 043°21'714.4
2018-Feb-17 11:30S 23°36' W 043°28'714.2
2018-Feb-17 11:00S 23°39' W 043°35'714.2
2018-Feb-17 10:29S 23°41' W 043°43'815.3
2018-Feb-17 09:59S 23°42' W 043°51'13613.5
2018-Feb-16 23:54S 24°06' W 046°17'614.4
2018-Feb-16 23:30S 24°01' W 046°21'4 8.4
2018-Feb-16 23:00S 23°58' W 046°17'1 1.9
2018-Feb-16 22:28S 23°58' W 046°18'0 0.0
2018-Feb-16 21:58S 23°58' W 046°18'0 0.0
2018-Feb-16 21:28S 23°58' W 046°18'0 0.0
2018-Feb-16 20:58S 23°58' W 046°18'0 0.0
2018-Feb-16 20:22S 23°58' W 046°18'0 0.0
2018-Feb-16 19:46S 23°58' W 046°18'0 0.0
2018-Feb-16 19:28S 23°58' W 046°18'0 0.0
2018-Feb-16 18:58S 23°58' W 046°18'0 0.0
2018-Feb-16 18:28S 23°58' W 046°18'0 0.0
2018-Feb-16 17:58S 23°58' W 046°18'0 0.0
2018-Feb-16 17:28S 23°58' W 046°18'0 0.0
2018-Feb-16 16:58S 23°58' W 046°18'0 0.0
2018-Feb-16 16:25S 23°58' W 046°18'0 0.0
2018-Feb-16 15:55S 23°58' W 046°18'0 0.0
2018-Feb-16 15:28S 23°58' W 046°18'0 0.0
2018-Feb-16 14:58S 23°58' W 046°18'0 0.0
2018-Feb-16 14:28S 23°58' W 046°18'0 0.0
2018-Feb-16 13:58S 23°58' W 046°18'0 0.0
2018-Feb-16 13:28S 23°58' W 046°18'0 0.0
2018-Feb-16 12:52S 23°58' W 046°18'0 0.0
2018-Feb-16 12:28S 23°58' W 046°18'0 0.0
2018-Feb-16 11:58S 23°58' W 046°18'0 0.0
2018-Feb-16 11:28S 23°58' W 046°18'0 0.0
2018-Feb-16 10:58S 23°58' W 046°18'0 0.0
2018-Feb-16 10:16S 23°58' W 046°18'0 0.0
2018-Feb-16 09:58S 23°58' W 046°18'0 0.0
2018-Feb-16 09:30S 23°58' W 046°18'1 1.6
2018-Feb-16 09:00S 23°58' W 046°17'3 6.5
2018-Feb-16 08:29S 24°00' W 046°20'4 8.3
2018-Feb-16 08:00S 24°04' W 046°22'5 8.7
2018-Feb-16 07:24S 24°09' W 046°24'3 7.4
2018-Feb-16 06:56S 24°09' W 046°28'3 0.9
2018-Feb-16 03:24S 24°12' W 046°26'4 2.7
2018-Feb-16 01:59S 24°12' W 046°31'8 0.7
2018-Feb-15 13:54S 24°17' W 046°24'8 8.0
2018-Feb-15 12:52S 24°13' W 046°31'3 1.1
2018-Feb-15 09:50S 24°16' W 046°29'2 1.3
2018-Feb-15 07:52S 24°17' W 046°27'1 1.4
2018-Feb-15 07:21S 24°17' W 046°26'1 1.2
2018-Feb-15 06:56S 24°18' W 046°26'  

Dump ship's entire track history